Latest Weather Observations for Viewbank

IDV60901

Issued at 11:31 pm EST Saturday 27 August 2016 (issued every 10 minutes, with the page automatically refreshed every 10 minutes)

About weather observations | Map of Melbourne area stations | Latest observations for Melbourne area | Other Formats
Station Details ID: 086068 Name: VIEWBANK Lat: -37.74 Lon: 145.10 Height: 66.1 m
Data from the previous 72 hours. | See also: Recent months at Viewbank
Date/Time
EST
Temp
°C
App
Temp
°C
Dew
Point
°C
Rel
Hum
%
Delta-T
°C
Wind Press
QNH
hPa
Press
MSL
hPa
Rain since
9am
mm
Dir  Spd
km/h
Gust
km/h
Spd
kts
Gust
kts
27/11:30pm 11.3 7.1 3.8 60 3.3 NNE 15 22 8 12 1019.7 1019.8 0.0
27/11:00pm 11.3 7.2 4.3 62 3.1 NNE 15 24 8 13 1019.6 1019.7 0.0
27/10:30pm 11.3 7.2 4.5 63 3.1 NNE 15 24 8 13 1020.1 1020.2 0.0
27/10:00pm 11.4 6.6 4.6 63 3.1 NNE 19 28 10 15 1020.1 1020.2 0.0
27/09:30pm 11.0 6.6 4.7 65 2.9 NNE 17 26 9 14 1020.5 1020.6 0.0
27/09:00pm 11.3 6.9 4.7 64 3.0 NNE 17 26 9 14 1020.5 1020.6 0.0
27/08:30pm 11.4 7.0 4.6 63 3.1 N 17 28 9 15 1020.4 1020.5 0.0
27/08:00pm 11.3 7.6 4.5 63 3.1 N 13 22 7 12 1020.2 1020.3 0.0
27/07:30pm 11.6 7.5 4.6 62 3.2 N 15 19 8 10 1020.3 1020.4 0.0
27/07:00pm 11.8 7.7 4.5 61 3.3 N 15 24 8 13 1019.8 1019.9 0.0
27/06:30pm 11.9 8.2 4.4 60 3.4 NE 13 28 7 15 1019.4 1019.5 0.0
27/06:00pm 12.1 8.0 4.3 59 3.5 N 15 24 8 13 1019.2 1019.3 0.0
27/05:30pm 12.5 8.1 4.5 58 3.7 N 17 28 9 15 1019.1 1019.2 0.0
27/05:00pm 12.9 8.0 4.1 55 4.0 N 19 30 10 16 1018.9 1019.0 0.0
27/04:30pm 13.3 8.1 3.4 51 4.4 NNW 20 32 11 17 1018.7 1018.8 0.0
27/04:00pm 13.7 7.7 3.2 49 4.7 N 24 37 13 20 1018.5 1018.6 0.0
27/03:30pm 13.9 8.8 3.9 51 4.6 NNW 20 37 11 20 1018.9 1019.0 0.0
27/03:00pm 14.8 10.0 4.8 51 4.7 N 19 32 10 17 1018.9 1019.0 0.0
27/02:30pm 14.3 9.4 4.0 50 4.7 N 19 32 10 17 1019.2 1019.3 0.0
27/02:00pm 14.1 8.7 4.4 52 4.5 N 22 43 12 23 1019.5 1019.6 0.0
27/01:30pm 14.6 9.4 3.7 48 5.0 NNW 20 39 11 21 1019.5 1019.6 0.0
27/01:00pm 13.8 8.9 3.9 51 4.5 NNW 19 32 10 17 1020.2 1020.3 0.0
27/12:30pm 14.2 9.0 3.7 49 4.8 NNW 20 32 11 17 1020.8 1020.9 0.0
27/12:00pm 12.7 8.7 2.8 51 4.3 NW 13 28 7 15 1021.3 1021.4 0.0
27/11:30am 13.3 7.6 2.8 49 4.7 NNW 22 39 12 21 1021.9 1022.0 0.0
27/11:00am 12.3 7.5 2.7 52 4.2 NW 17 28 9 15 1022.0 1022.1 0.0
27/10:30am 12.1 8.2 3.6 56 3.8 WNW 13 19 7 10 1022.0 1022.1 0.0
27/10:00am 12.2 7.6 3.9 57 3.7 NW 17 28 9 15 1022.0 1022.1 0.0
27/09:30am 11.6 7.5 4.3 61 3.3 NNW 15 24 8 13 1022.3 1022.4 0.0
27/09:00am 10.8 6.6 4.0 63 3.0 NNW 15 24 8 13 1022.7 1022.8 0.0
27/08:30am 9.5 5.6 3.3 65 2.7 N 13 22 7 12 1022.8 1022.9 0.0
27/08:00am 8.9 5.3 3.1 67 2.5 N 11 15 6 8 1022.7 1022.8 0.0
27/07:30am 8.6 4.3 3.0 68 2.4 N 15 24 8 13 1022.6 1022.7 0.0
27/07:00am 8.4 4.4 2.6 67 2.4 N 13 19 7 10 1022.3 1022.4 0.0
27/06:30am 8.5 4.4 2.3 65 2.6 NNW 13 20 7 11 1021.8 1021.9 0.0
27/06:00am 8.8 4.3 2.4 64 2.7 NNW 15 22 8 12 1021.5 1021.6 0.0
27/05:30am 8.8 5.2 3.0 67 2.5 NNW 11 17 6 9 1021.3 1021.4 0.0
27/05:00am 9.3 5.7 2.9 64 2.7 NW 11 17 6 9 1021.3 1021.4 0.0
27/04:30am 9.7 6.1 3.0 63 2.9 NW 11 19 6 10 1021.2 1021.3 0.0
27/04:00am 9.8 5.8 2.6 61 3.1 NNW 13 20 7 11 1020.8 1020.9 0.0
27/03:30am 9.7 6.1 2.8 62 3.0 NNW 11 19 6 10 1020.8 1020.9 0.0
27/03:00am 9.8 5.8 2.9 62 3.0 NNW 13 19 7 10 1021.1 1021.2 0.0
27/02:30am 9.7 6.1 3.2 64 2.8 NNW 11 19 6 10 1021.3 1021.4 0.0
27/02:00am 9.7 5.8 3.2 64 2.8 NNW 13 20 7 11 1021.5 1021.6 0.0
27/01:30am 9.8 6.2 2.9 62 3.0 NNW 11 17 6 9 1021.8 1021.9 0.0
27/01:00am 9.6 6.0 2.9 63 2.9 NNW 11 17 6 9 1022.0 1022.1 0.0
27/12:30am 9.6 6.3 2.7 62 3.0 NNW 9 13 5 7 1022.2 1022.3 0.0
27/12:00am 9.8 6.5 2.6 61 3.1 N 9 11 5 6 1022.1 1022.2 0.0
 
Date/Time
EST
Temp
°C
App
Temp
°C
Dew
Point
°C
Rel
Hum
%
Delta-T
°C
Wind Press
QNH
hPa
Press
MSL
hPa
Rain since
9am
mm
Dir  Spd
km/h
Gust
km/h
Spd
kts
Gust
kts
26/11:30pm 10.1 7.7 2.2 58 3.4 N 4 7 2 4 1022.3 1022.4 0.0
26/11:00pm 10.3 6.7 2.7 59 3.3 N 11 17 6 9 1022.3 1022.4 0.0
26/10:30pm 10.2 6.9 2.6 59 3.3 NNW 9 15 5 8 1022.2 1022.3 0.0
26/10:00pm 10.1 6.8 2.5 59 3.2 NNW 9 13 5 7 1022.0 1022.1 0.0
26/09:30pm 10.6 7.3 2.7 58 3.4 NNW 9 15 5 8 1021.9 1022.0 0.0
26/09:00pm 10.8 7.5 2.6 57 3.5 NW 9 13 5 7 1022.0 1022.1 0.0
26/08:30pm 10.9 7.6 2.2 55 3.7 NW 9 17 5 9 1021.9 1022.0 0.0
26/08:00pm 11.1 7.8 2.7 56 3.6 NW 9 15 5 8 1021.9 1022.0 0.0
26/07:30pm 11.4 8.6 2.9 56 3.7 NW 7 13 4 7 1021.8 1021.9 0.0
26/07:00pm 11.6 8.3 2.6 54 3.9 NNW 9 11 5 6 1021.6 1021.7 0.0
26/06:30pm 11.5 8.3 2.8 55 3.8 WNW 9 15 5 8 1021.5 1021.6 0.0
26/06:00pm 11.7 8.8 2.5 53 4.0 NW 7 13 4 7 1021.2 1021.3 0.0
26/05:30pm 11.9 8.6 2.4 52 4.1 NW 9 15 5 8 1020.8 1020.9 0.0
26/05:00pm 12.2 8.5 2.1 50 4.3 W 11 19 6 10 1020.7 1020.8 0.0
26/04:30pm 12.2 9.3 2.4 51 4.3 NW 7 13 4 7 1020.7 1020.8 0.0
26/04:00pm 12.5 8.9 3.2 53 4.1 W 11 17 6 9 1020.5 1020.6 0.0
26/03:30pm 12.6 8.7 3.6 54 4.0 W 13 19 7 10 1020.4 1020.5 0.0
26/03:00pm 12.4 8.9 3.6 55 3.9 WSW 11 20 6 11 1020.5 1020.6 0.0
26/02:30pm 11.6 9.2 5.3 65 2.9 SW 7 11 4 6 1020.7 1020.8 0.0
26/02:00pm 11.2 7.6 4.9 65 2.9 WSW 13 22 7 12 1020.9 1021.0 0.0
26/01:30pm 12.3 8.5 4.0 57 3.7 W 13 19 7 10 1020.9 1021.0 0.0
26/01:00pm 11.6 7.7 3.4 57 3.6 WSW 13 24 7 13 1021.1 1021.2 0.0
26/12:30pm 12.4 8.4 2.8 52 4.2 WSW 13 20 7 11 1021.3 1021.4 0.0
26/12:00pm 11.5 7.7 4.0 60 3.3 W 13 24 7 13 1021.7 1021.8 0.0
26/11:30am 12.0 8.3 4.5 60 3.4 W 13 20 7 11 1021.9 1022.0 0.0
26/11:00am 11.6 7.7 3.4 57 3.6 W 13 22 7 12 1022.0 1022.1 0.0
26/10:30am 11.1 8.1 5.8 70 2.5 WNW 11 19 6 10 1022.0 1022.1 0.0
26/10:00am 10.3 8.4 7.4 82 1.4 W 7 15 4 8 1022.1 1022.2 0.0
26/09:30am 8.5 8.2 8.5 100 0.0 CALM 0 0 0 0 1022.2 1022.3 0.0
26/09:00am 7.5 5.8 7.5 100 0.0 SW 6 7 3 4 1022.2 1022.3 1.4
26/08:30am 7.1 5.7 7.1 100 0.0 ESE 4 7 2 4 1022.0 1022.1 1.4
26/08:00am 6.2 5.3 6.2 100 0.0 CALM 0 2 0 1 1021.9 1022.0 1.4
26/07:30am 6.0 5.1 6.0 100 0.0 CALM 0 0 0 0 1021.8 1021.9 1.4
26/07:00am 5.6 4.6 5.6 100 0.0 CALM 0 6 0 3 1021.5 1021.6 1.4
26/06:30am 5.1 4.0 5.1 100 0.0 CALM 0 6 0 3 1021.1 1021.2 1.4
26/06:00am 5.4 3.2 5.4 100 0.0 NE 6 7 3 4 1020.9 1021.0 1.4
26/05:30am 5.3 2.9 5.3 100 0.0 NE 7 9 4 5 1020.7 1020.8 1.4
26/05:00am 5.7 3.6 5.6 99 0.0 NE 6 7 3 4 1020.4 1020.5 1.4
26/04:30am 6.0 3.7 5.9 99 0.0 NE 7 9 4 5 1019.9 1020.0 1.4
26/04:00am 5.3 4.2 5.2 99 0.0 CALM 0 0 0 0 1019.7 1019.8 1.4
26/03:30am 5.4 3.2 5.3 99 0.0 NW 6 7 3 4 1019.6 1019.7 1.4
26/03:00am 5.3 3.1 5.2 99 0.0 NW 6 9 3 5 1019.7 1019.8 1.2
26/02:30am 5.6 3.4 5.5 99 0.0 WNW 6 9 3 5 1019.7 1019.8 1.2
26/02:00am 5.9 4.2 5.8 99 0.0 NW 4 7 2 4 1019.7 1019.8 1.2
26/01:30am 6.1 4.0 6.0 99 0.0 W 6 7 3 4 1019.8 1019.9 1.2
26/01:00am 6.7 5.2 6.6 99 0.0 WNW 4 7 2 4 1019.8 1019.9 1.2
26/12:30am 7.3 5.5 7.0 98 0.1 WNW 6 9 3 5 1019.7 1019.8 1.2
26/12:00am 7.5 5.1 7.1 97 0.2 W 9 15 5 8 1019.5 1019.6 1.2
 
Date/Time
EST
Temp
°C
App
Temp
°C
Dew
Point
°C
Rel
Hum
%
Delta-T
°C
Wind Press
QNH
hPa
Press
MSL
hPa
Rain since
9am
mm
Dir  Spd
km/h
Gust
km/h
Spd
kts
Gust
kts
25/11:30pm 7.7 5.8 7.6 99 0.0 W 7 11 4 6 1019.4 1019.5 1.2
25/11:00pm 8.0 6.8 7.9 99 0.0 W 4 9 2 5 1019.4 1019.5 1.2
25/10:30pm 8.0 6.1 7.7 98 0.1 W 7 11 4 6 1019.3 1019.4 0.8
25/10:00pm 8.1 6.5 8.0 99 0.0 WNW 6 7 3 4 1019.2 1019.3 0.8
25/09:30pm 8.0 7.5 7.9 99 0.0 CALM 0 0 0 0 1019.1 1019.2 0.8
25/09:00pm 8.4 7.2 8.1 98 0.1 SSW 4 9 2 5 1018.9 1019.0 0.8
25/08:30pm 8.8 6.2 7.6 92 0.6 SSW 11 19 6 10 1018.8 1018.9 0.8
25/08:00pm 9.2 5.9 6.5 83 1.3 SSW 13 20 7 11 1018.5 1018.6 0.6
25/07:30pm 9.1 6.9 6.0 81 1.4 SW 7 11 4 6 1018.1 1018.2 0.4
25/07:00pm 9.4 6.8 6.1 80 1.5 SW 9 13 5 7 1017.7 1017.8 0.4
25/06:30pm 9.6 6.5 5.6 76 1.8 SW 11 17 6 9 1017.3 1017.4 0.4
25/06:00pm 10.2 6.6 5.0 70 2.4 SW 13 20 7 11 1016.9 1017.0 0.4
25/05:30pm 10.5 6.1 4.9 68 2.5 SW 17 26 9 14 1016.6 1016.7 0.4
25/05:00pm 11.3 6.4 4.1 61 3.2 SW 19 30 10 16 1016.1 1016.1 0.4
25/04:30pm 11.7 6.6 4.0 59 3.5 SSW 20 32 11 17 1015.8 1015.8 0.4
25/04:00pm 11.7 6.7 3.5 57 3.6 SW 19 30 10 16 1015.8 1015.8 0.4
25/03:30pm 12.4 7.3 4.1 57 3.8 SSW 20 35 11 19 1015.6 1015.6 0.4
25/03:00pm 12.7 8.6 6.1 64 3.1 WSW 17 33 9 18 1015.5 1015.5 0.4
25/02:30pm 12.6 7.3 5.1 60 3.5 SW 22 33 12 18 1015.2 1015.2 0.4
25/02:00pm 12.7 7.9 5.6 62 3.3 SW 20 35 11 19 1014.9 1014.9 0.4
25/01:30pm 11.5 6.1 4.7 63 3.1 SW 22 35 12 19 1014.9 1014.9 0.4
25/01:00pm 12.3 8.1 5.9 65 3.0 SW 17 28 9 15 1014.8 1014.8 0.4
25/12:30pm 11.2 6.3 5.1 66 2.8 SW 20 32 11 17 1015.1 1015.1 0.4
25/12:00pm 11.3 6.4 5.2 66 2.8 WSW 20 30 11 16 1015.1 1015.1 0.4
25/11:30am 11.3 7.1 5.8 69 2.6 WSW 17 26 9 14 1015.2 1015.2 0.4
25/11:00am 10.6 7.3 6.6 76 1.9 SW 13 24 7 13 1015.4 1015.4 0.4
25/10:30am 9.7 6.4 6.2 79 1.6 W 13 20 7 11 1015.2 1015.2 0.4
25/10:00am 8.7 6.7 8.6 99 0.0 WNW 9 15 5 8 1015.2 1015.2 0.4
25/09:30am 7.6 5.3 7.5 99 0.0 W 9 15 5 8 1015.2 1015.2 0.4
25/09:00am 7.5 5.2 7.4 99 0.0 W 9 19 5 10 1015.1 1015.1 1.2
25/08:30am 7.1 4.0 7.1 100 0.0 W 13 19 7 10 1014.9 1014.9 1.2
25/08:00am 6.6 4.1 6.6 100 0.0 W 9 17 5 9 1014.5 1014.5 1.2
25/07:30am 6.5 4.0 6.5 100 0.0 W 9 13 5 7 1014.3 1014.3 1.2
25/07:00am 6.4 3.9 6.4 100 0.0 WNW 9 15 5 8 1014.1 1014.1 0.4
25/06:30am 6.4 4.2 6.3 99 0.0 W 7 13 4 7 1013.8 1013.8 0.4
25/06:00am 6.7 3.8 6.6 99 0.0 W 11 15 6 8 1013.5 1013.5 0.4
25/05:30am 6.8 3.9 6.7 99 0.0 W 11 17 6 9 1013.3 1013.3 0.2
25/05:00am 7.0 3.7 6.4 96 0.3 W 13 19 7 10 1013.1 1013.1 0.2
25/04:30am 6.9 4.8 6.5 97 0.2 W 7 13 4 7 1012.9 1012.9 0.2
25/04:00am 6.9 4.0 6.3 96 0.3 W 11 17 6 9 1012.9 1012.9 0.2
25/03:30am 6.8 4.2 6.2 96 0.3 W 9 15 5 8 1012.9 1012.9 0.2
25/03:00am 6.7 4.1 6.3 97 0.2 W 9 13 5 7 1012.9 1012.9 0.2
25/02:30am 6.8 4.3 6.5 98 0.1 W 9 13 5 7 1013.0 1013.0 0.2
25/02:00am 6.6 4.5 6.5 99 0.0 W 7 9 4 5 1013.3 1013.3 0.2
25/01:30am 6.5 4.3 6.4 99 0.0 W 7 9 4 5 1013.5 1013.5 0.2
25/01:00am 6.5 4.0 6.4 99 0.0 W 9 13 5 7 1013.5 1013.5 0.2
25/12:30am 7.0 5.0 6.9 99 0.0 W 7 11 4 6 1013.5 1013.5 0.2
25/12:00am 7.1 6.4 7.0 99 0.0 CALM 0 0 0 0 1013.6 1013.6 0.2

Latest Capital City Observations: Canberra | Sydney | Melbourne | Brisbane | Adelaide | Perth | Hobart | Darwin

Other Formats:

Comma delimited format used in spreadsheet applications
http://www.bom.gov.au/fwo/IDV60901/IDV60901.95874.axf

JavaScript Object Notation format (JSON) in row-major order
http://www.bom.gov.au/fwo/IDV60901/IDV60901.95874.json